createdAt,value
2022-10-29T00:04:45.988Z,102166.06
2022-10-29T00:09:49.080Z,102164.06
2022-10-29T00:14:53.984Z,102162.84
2022-10-29T00:19:56.951Z,102162.56
2022-10-29T00:25:00.494Z,102162.44
2022-10-29T00:30:05.361Z,102154.22
2022-10-29T00:35:08.788Z,102148.75
2022-10-29T00:40:13.253Z,102147.53
2022-10-29T00:45:22.489Z,102140.06
2022-10-29T00:50:26.003Z,102144.13
2022-10-29T00:55:29.470Z,102152.59
2022-10-29T01:00:33.828Z,102148.78
2022-10-29T01:05:37.590Z,102154.84
2022-10-29T01:10:55.460Z,102138.78
2022-10-29T01:16:07.716Z,102140.44
2022-10-29T01:21:38.142Z,102123.41
2022-10-29T01:27:21.680Z,102117.19
2022-10-29T01:32:32.250Z,102117.78
2022-10-29T01:37:43.201Z,102114.00
2022-10-29T01:42:50.656Z,102105.03
2022-10-29T01:47:59.310Z,102096.81
2022-10-29T01:53:04.884Z,102090.50
2022-10-29T01:58:08.787Z,102078.91
2022-10-29T02:03:26.001Z,102072.59
2022-10-29T02:08:37.679Z,102085.69
2022-10-29T02:13:46.928Z,102084.72
2022-10-29T02:18:53.513Z,102087.22
2022-10-29T02:23:56.465Z,102076.50
2022-10-29T02:29:00.132Z,102083.47
2022-10-29T02:34:04.650Z,102071.94
2022-10-29T02:39:07.656Z,102059.69
2022-10-29T02:44:10.584Z,102052.50
2022-10-29T02:49:14.957Z,102047.16
2022-10-29T02:54:20.489Z,102047.22
2022-10-29T02:59:23.691Z,102053.50
2022-10-29T03:04:28.298Z,102037.72
2022-10-29T03:09:31.275Z,102040.47
2022-10-29T03:14:34.359Z,102048.38
2022-10-29T03:19:38.760Z,102042.19
2022-10-29T03:24:41.732Z,102048.78
2022-10-29T03:29:44.707Z,102040.31
2022-10-29T03:34:49.098Z,102045.88
2022-10-29T03:39:52.000Z,102035.69
2022-10-29T03:44:54.964Z,102038.59
2022-10-29T03:49:59.425Z,102040.66
2022-10-29T03:55:02.476Z,102032.75
2022-10-29T04:00:06.277Z,102016.28
2022-10-29T04:05:17.246Z,102002.97
2022-10-29T04:10:20.308Z,102008.19
2022-10-29T04:15:23.495Z,101993.19
2022-10-29T04:20:57.001Z,102010.06
2022-10-29T04:31:20.784Z,101971.44
2022-10-29T04:36:25.310Z,101993.91
2022-10-29T04:41:28.375Z,101990.50
2022-10-29T04:46:31.368Z,101982.66
2022-10-29T04:51:35.832Z,101979.94
2022-10-29T04:56:38.848Z,101979.94
2022-10-29T05:01:41.841Z,101972.31
2022-10-29T05:06:46.561Z,101974.16
2022-10-29T05:11:49.593Z,101963.75
2022-10-29T05:16:52.783Z,101970.97
2022-10-29T05:21:57.356Z,101958.47
2022-10-29T05:27:00.365Z,101960.28
2022-10-29T05:32:03.420Z,101957.81
2022-10-29T05:37:07.680Z,101945.66
2022-10-29T05:42:10.600Z,101950.16
2022-10-29T05:47:13.599Z,101938.13
2022-10-29T05:52:18.043Z,101938.28
2022-10-29T05:57:21.258Z,101939.06
2022-10-29T06:02:24.442Z,101942.50
2022-10-29T06:07:28.929Z,101939.72
2022-10-29T06:12:34.876Z,101942.28
2022-10-29T06:17:41.847Z,101957.72
2022-10-29T06:22:46.228Z,101953.53
2022-10-29T06:27:49.395Z,101951.06
2022-10-29T06:32:52.542Z,101920.22
2022-10-29T06:37:57.259Z,101927.50
2022-10-29T06:43:00.949Z,101916.84
2022-10-29T06:48:05.154Z,101919.69
2022-10-29T06:53:13.312Z,101939.44
2022-10-29T06:58:18.561Z,101941.50
2022-10-29T07:03:23.155Z,101945.25
2022-10-29T07:08:28.922Z,101937.56
2022-10-29T07:13:31.932Z,101928.06
2022-10-29T07:18:35.356Z,101929.28
2022-10-29T07:23:39.685Z,101930.53
2022-10-29T07:28:42.963Z,101921.03
2022-10-29T07:46:18.683Z,101928.91
2022-10-29T07:51:21.682Z,101919.34
2022-10-29T07:56:26.068Z,101896.50
2022-10-29T08:01:29.132Z,101891.56
2022-10-29T08:06:32.414Z,101895.72
2022-10-29T08:11:36.932Z,101894.22
2022-10-29T08:16:40.373Z,101882.25
2022-10-29T08:21:43.626Z,101890.47
2022-10-29T08:26:48.135Z,101890.06
2022-10-29T08:31:51.163Z,101893.00
2022-10-29T08:36:54.103Z,101905.13
2022-10-29T08:42:11.242Z,101904.66
2022-10-29T08:47:19.218Z,101893.69
2022-10-29T08:52:35.410Z,101903.94
2022-10-29T08:57:45.324Z,101895.66
2022-10-29T09:02:48.525Z,101882.69
2022-10-29T09:08:08.520Z,101878.41
2022-10-29T09:13:40.150Z,101864.59
2022-10-29T09:19:01.604Z,101851.59
2022-10-29T09:24:16.253Z,101857.06
2022-10-29T09:29:37.616Z,101858.09
2022-10-29T09:34:45.511Z,101852.97
2022-10-29T09:39:49.534Z,101840.75
2022-10-29T09:44:57.157Z,101826.47
2022-10-29T09:50:11.835Z,101844.47
2022-10-29T09:55:22.139Z,101844.00
2022-10-29T10:00:28.653Z,101836.41
2022-10-29T10:05:33.232Z,101828.94
2022-10-29T10:10:39.334Z,101829.41
2022-10-29T10:15:52.149Z,101794.94
2022-10-29T10:21:05.362Z,101803.25
2022-10-29T10:26:32.699Z,101802.47
2022-10-29T10:31:37.635Z,101794.75
2022-10-29T10:36:46.970Z,101776.44
2022-10-29T10:41:51.828Z,101801.47
2022-10-29T10:46:58.288Z,101792.84
2022-10-29T10:52:04.693Z,101798.53
2022-10-29T10:57:25.043Z,101807.44
2022-10-29T11:02:39.206Z,101796.19
2022-10-29T11:07:48.080Z,101795.72
2022-10-29T11:12:56.155Z,101778.06
2022-10-29T11:18:08.171Z,101799.41
2022-10-29T11:23:29.421Z,101791.56
2022-10-29T11:28:39.857Z,101775.84
2022-10-29T11:33:52.054Z,101764.44
2022-10-29T11:39:03.580Z,101748.59
2022-10-29T11:44:13.033Z,101753.97
2022-10-29T11:49:31.587Z,101752.31
2022-10-29T11:54:52.602Z,101735.47
2022-10-29T12:00:13.903Z,101738.25
2022-10-29T12:05:29.938Z,101724.00
2022-10-29T12:10:45.159Z,101717.75
2022-10-29T12:15:57.466Z,101718.63
2022-10-29T12:21:11.032Z,101716.88
2022-10-29T12:26:19.669Z,101717.75
2022-10-29T12:31:30.013Z,101710.56
2022-10-29T12:36:44.472Z,101705.19
2022-10-29T12:41:51.302Z,101693.53
2022-10-29T12:47:03.535Z,101696.13
2022-10-29T12:52:14.857Z,101679.03
2022-10-29T12:57:39.124Z,101669.88
2022-10-29T13:02:46.247Z,101664.34
2022-10-29T13:08:19.625Z,101661.59
2022-10-29T13:13:48.341Z,101661.59
2022-10-29T13:19:06.132Z,101659.00
2022-10-29T13:24:18.264Z,101646.63
2022-10-29T13:29:43.373Z,101643.97
2022-10-29T13:34:57.788Z,101636.91
2022-10-29T13:40:34.066Z,101637.88
2022-10-29T13:45:40.622Z,101640.66
2022-10-29T13:50:44.207Z,101640.66
2022-10-29T13:55:47.866Z,101633.56
2022-10-29T14:00:52.640Z,101628.19
2022-10-29T14:06:01.636Z,101621.09
2022-10-29T14:11:15.018Z,101610.38
2022-10-29T14:16:20.681Z,101614.88
2022-10-29T14:21:25.787Z,101617.56
2022-10-29T14:26:30.664Z,101623.00
2022-10-29T14:31:35.209Z,101619.44
2022-10-29T14:36:43.326Z,101625.69
2022-10-29T14:41:50.053Z,101624.84
2022-10-29T14:47:02.160Z,101625.75
2022-10-29T14:52:12.856Z,101615.06
2022-10-29T14:57:19.425Z,101606.16
2022-10-29T15:02:37.524Z,101598.13
2022-10-29T15:07:41.940Z,101598.16
2022-10-29T15:12:46.293Z,101586.59
2022-10-29T15:17:54.297Z,101565.22
2022-10-29T15:22:59.663Z,101571.47
2022-10-29T15:28:03.398Z,101566.13
2022-10-29T15:33:16.703Z,101557.25
2022-10-29T15:39:04.106Z,101552.75
2022-10-29T15:44:29.045Z,101541.16
2022-10-29T15:49:33.680Z,101545.63
2022-10-29T15:54:36.747Z,101530.47
2022-10-29T15:59:41.152Z,101530.44
2022-10-29T16:04:45.738Z,101530.41
2022-10-29T16:09:51.577Z,101531.28
2022-10-29T16:14:54.773Z,101518.75
2022-10-29T16:19:59.244Z,101524.97
2022-10-29T16:25:02.245Z,101516.88
2022-10-29T16:30:06.071Z,101517.78
2022-10-29T16:35:15.559Z,101521.28
2022-10-29T16:40:19.205Z,101513.22
2022-10-29T16:45:24.414Z,101509.63
2022-10-29T16:50:34.264Z,101501.59
2022-10-29T16:55:39.296Z,101514.91
2022-10-29T17:00:42.761Z,101513.94
2022-10-29T17:05:47.995Z,101505.06
2022-10-29T17:10:51.342Z,101499.69
2022-10-29T17:15:54.499Z,101501.44
2022-10-29T17:21:01.324Z,101498.63
2022-10-29T17:26:04.599Z,101519.09
2022-10-29T17:31:08.534Z,101541.25
2022-10-29T17:36:15.274Z,101569.63
2022-10-29T17:41:18.550Z,101576.66
2022-10-29T17:46:21.760Z,101579.22
2022-10-29T17:51:26.439Z,101583.59
2022-10-29T17:56:29.486Z,101582.66
2022-10-29T18:01:32.675Z,101578.09
2022-10-29T18:06:37.460Z,101571.78
2022-10-29T18:11:40.459Z,101578.84
2022-10-29T18:16:43.670Z,101577.91
2022-10-29T18:21:48.157Z,101572.50
2022-10-29T18:26:51.439Z,101586.66
2022-10-29T18:31:54.431Z,101577.75
2022-10-29T18:37:00.333Z,101574.09
2022-10-29T18:42:09.559Z,101566.09
2022-10-29T18:47:12.881Z,101563.44
2022-10-29T18:52:17.668Z,101554.44
2022-10-29T18:57:21.112Z,101555.34
2022-10-29T19:02:24.604Z,101567.69
2022-10-29T19:07:29.410Z,101566.66
2022-10-29T19:12:33.152Z,101566.63
2022-10-29T19:17:36.414Z,101563.91
2022-10-29T19:22:40.963Z,101579.00
2022-10-29T19:27:44.300Z,101576.28
2022-10-29T19:32:48.108Z,101577.13
2022-10-29T19:37:52.728Z,101577.09
2022-10-29T19:42:56.993Z,101589.44
2022-10-29T19:48:00.206Z,101594.66
2022-10-29T19:53:05.576Z,101591.91
2022-10-29T19:58:08.895Z,101590.94
2022-10-29T20:03:13.111Z,101583.78
2022-10-29T20:08:21.965Z,101595.16
2022-10-29T20:13:25.830Z,101596.91
2022-10-29T20:18:28.821Z,101603.94
2022-10-29T20:23:33.446Z,101602.13
2022-10-29T20:28:36.963Z,101598.41
2022-10-29T20:33:40.273Z,101603.75
2022-10-29T20:38:44.900Z,101609.88
2022-10-29T20:43:53.056Z,101610.66
2022-10-29T20:48:56.446Z,101612.28
2022-10-29T20:54:01.050Z,101612.13
2022-10-29T20:59:05.512Z,101614.59
2022-10-29T21:04:08.733Z,101607.25
2022-10-29T21:09:13.159Z,101623.13
2022-10-29T21:14:16.139Z,101627.41
2022-10-29T21:19:19.483Z,101623.63
2022-10-29T21:24:24.025Z,101636.84
2022-10-29T21:29:27.150Z,101634.03
2022-10-29T21:34:30.197Z,101637.44
2022-10-29T21:39:34.938Z,101631.09
2022-10-29T21:44:38.174Z,101647.00
2022-10-29T21:49:41.246Z,101648.59
2022-10-29T21:54:45.738Z,101657.28
2022-10-29T21:59:48.831Z,101653.47
2022-10-29T22:04:51.778Z,101658.63
2022-10-29T22:09:56.355Z,101660.22
2022-10-29T22:15:04.140Z,101650.19
2022-10-29T22:20:08.137Z,101647.44
2022-10-29T22:25:12.476Z,101657.06
2022-10-29T22:30:15.584Z,101661.28
2022-10-29T22:35:18.824Z,101660.25
2022-10-29T22:40:23.269Z,101662.75
2022-10-29T22:45:26.262Z,101661.66
2022-10-29T22:50:29.374Z,101655.16
2022-10-29T22:55:33.908Z,101647.56
2022-10-29T23:00:36.944Z,101677.59
2022-10-29T23:05:39.930Z,101676.47
2022-10-29T23:10:44.390Z,101683.28
2022-10-29T23:15:48.097Z,101678.72
2022-10-29T23:20:59.050Z,101682.00
2022-10-29T23:26:04.206Z,101673.84
2022-10-29T23:31:11.542Z,101679.75
2022-10-29T23:36:15.832Z,101687.44
2022-10-29T23:41:20.175Z,101685.41
2022-10-29T23:46:23.330Z,101687.09
2022-10-29T23:51:26.334Z,101688.72
2022-10-29T23:56:30.640Z,101685.91
